Time;durP1;ratioP1;P1;durP2;ratioP2;P2;SDS_P1;SDS_P2;PMS_P1;PMS_P2;Temp;Humidity;BMP_temperature;BMP_pressure;BME280_temperature;BME280_humidity;BME280_pressure;Samples;Min_cycle;Max_cycle;Signal;HPM_P1;HPM_P2
2021/08/12 00:01:04;;;;;;;18.88;5.38;;;25.40;51.20;;;;;;6078877;28;80324;-62
2021/08/12 00:04:05;;;;;;;8.10;4.57;;;25.40;51.40;;;;;;6080331;28;81343;-62
2021/08/12 00:07:05;;;;;;;10.35;5.05;;;25.40;51.30;;;;;;6088531;28;79987;-62
2021/08/12 00:10:06;;;;;;;8.20;4.72;;;25.30;50.80;;;;;;6087779;28;82678;-62
2021/08/12 00:13:06;;;;;;;9.98;4.63;;;25.40;50.90;;;;;;6070746;28;81987;-63
2021/08/12 00:16:07;;;;;;;11.00;6.32;;;25.30;50.90;;;;;;6081380;28;81223;-62
2021/08/12 00:19:11;;;;;;;8.43;5.10;;;25.30;50.80;;;;;;6081048;28;80314;-62
2021/08/12 00:22:12;;;;;;;9.93;5.30;;;25.30;50.80;;;;;;6084221;28;81728;-62
2021/08/12 00:25:12;;;;;;;11.57;5.60;;;25.30;50.90;;;;;;6086399;28;80702;-62
2021/08/12 00:28:13;;;;;;;11.45;4.95;;;25.30;50.70;;;;;;6084027;28;80825;-62
2021/08/12 00:31:14;;;;;;;7.45;4.50;;;25.30;50.70;;;;;;6083858;28;80960;-62
2021/08/12 00:34:14;;;;;;;8.38;5.05;;;25.30;50.80;;;;;;6087852;28;80566;-62
2021/08/12 00:37:15;;;;;;;8.82;4.97;;;25.30;50.70;;;;;;6083084;28;82660;-63
2021/08/12 00:40:16;;;;;;;10.65;5.63;;;25.20;50.80;;;;;;6086253;28;83236;-63
2021/08/12 00:43:17;;;;;;;10.27;5.68;;;25.20;50.90;;;;;;6073099;28;83518;-62
2021/08/12 00:46:18;;;;;;;11.77;5.28;;;25.20;50.80;;;;;;6087276;28;80443;-63
2021/08/12 00:49:18;;;;;;;10.63;5.47;;;25.20;50.90;;;;;;6067156;28;83760;-62
2021/08/12 00:52:21;;;;;;;10.77;5.97;;;25.10;51.00;;;;;;6082784;28;82622;-63
2021/08/12 00:55:23;;;;;;;9.00;5.55;;;25.10;50.80;;;;;;6085397;28;81719;-62
2021/08/12 00:58:26;;;;;;;11.05;5.90;;;25.10;50.90;;;;;;6081244;28;81526;-62
2021/08/12 01:01:27;;;;;;;13.60;5.45;;;25.10;50.70;;;;;;6082730;28;83004;-62
2021/08/12 01:04:27;;;;;;;11.82;5.85;;;25.10;50.70;;;;;;6084042;28;80306;-63
2021/08/12 01:07:28;;;;;;;11.10;6.38;;;25.10;50.80;;;;;;6080450;28;83291;-62
2021/08/12 01:10:32;;;;;;;14.32;5.80;;;25.10;50.80;;;;;;6095149;28;82427;-63
2021/08/12 01:13:33;;;;;;;15.23;6.32;;;25.00;50.90;;;;;;6087354;28;82500;-62
2021/08/12 01:16:34;;;;;;;13.95;5.88;;;25.00;50.70;;;;;;6091523;28;83033;-63
2021/08/12 01:19:34;;;;;;;13.73;6.57;;;25.10;51.30;;;;;;6110802;28;80819;-62
2021/08/12 01:22:35;;;;;;;13.00;6.20;;;25.00;51.30;;;;;;6092073;28;82302;-62
2021/08/12 01:25:36;;;;;;;11.77;6.22;;;25.00;51.10;;;;;;6092566;28;82968;-62
2021/08/12 01:28:36;;;;;;;13.73;6.35;;;25.00;51.20;;;;;;6091359;28;82951;-62
2021/08/12 01:31:37;;;;;;;11.27;6.20;;;25.00;51.10;;;;;;6092031;28;83754;-62
2021/08/12 01:34:39;;;;;;;10.15;5.82;;;25.00;51.10;;;;;;6081996;28;83145;-62
2021/08/12 01:37:40;;;;;;;11.18;5.95;;;25.00;51.30;;;;;;6088700;28;83631;-62
2021/08/12 01:40:41;;;;;;;12.20;5.82;;;24.90;51.60;;;;;;6100930;28;80359;-62
2021/08/12 01:43:42;;;;;;;11.48;6.35;;;24.90;51.40;;;;;;6088122;28;81908;-62
2021/08/12 01:46:46;;;;;;;14.20;6.57;;;24.90;51.30;;;;;;6111650;28;81340;-63
2021/08/12 01:49:46;;;;;;;11.55;6.95;;;24.90;51.10;;;;;;6091970;28;82638;-62
2021/08/12 01:52:47;;;;;;;12.20;6.90;;;24.90;51.00;;;;;;6092169;28;82792;-62
2021/08/12 01:55:48;;;;;;;16.00;6.93;;;24.90;51.00;;;;;;6093449;28;81912;-63
2021/08/12 01:58:49;;;;;;;14.77;6.47;;;24.90;51.10;;;;;;6110216;28;80314;-62
2021/08/12 02:01:50;;;;;;;15.57;7.20;;;24.90;51.30;;;;;;6092154;28;82305;-63
2021/08/12 02:04:51;;;;;;;11.80;6.55;;;24.90;51.20;;;;;;6088934;28;82083;-62
2021/08/12 02:07:52;;;;;;;10.88;6.40;;;24.80;51.30;;;;;;6111615;28;80568;-63
2021/08/12 02:10:53;;;;;;;14.80;6.78;;;24.80;51.30;;;;;;6091236;28;81479;-63
2021/08/12 02:13:54;;;;;;;9.48;6.30;;;24.80;51.30;;;;;;6091942;28;81822;-63
2021/08/12 02:16:56;;;;;;;11.13;6.90;;;24.80;51.30;;;;;;6092906;28;83204;-63
2021/08/12 02:19:57;;;;;;;11.20;6.32;;;24.80;51.30;;;;;;6093388;28;82130;-62
2021/08/12 02:22:57;;;;;;;12.23;6.30;;;24.80;51.40;;;;;;6089686;28;81485;-63
2021/08/12 02:25:58;;;;;;;16.50;7.38;;;24.80;51.70;;;;;;6092166;28;87524;-62
2021/08/12 02:28:59;;;;;;;15.63;7.50;;;24.80;51.90;;;;;;6088080;28;83079;-62
2021/08/12 02:31:59;;;;;;;12.98;6.70;;;24.70;51.80;;;;;;6089237;28;83384;-62
2021/08/12 02:35:00;;;;;;;11.02;6.18;;;24.70;51.80;;;;;;6092753;28;83091;-62
2021/08/12 02:38:00;;;;;;;14.57;6.00;;;24.70;51.80;;;;;;6088217;28;82676;-62
2021/08/12 02:41:01;;;;;;;10.77;5.70;;;24.70;51.70;;;;;;6109459;28;80631;-62
2021/08/12 02:44:02;;;;;;;11.85;6.80;;;24.70;51.70;;;;;;6091220;28;83487;-62
2021/08/12 02:47:03;;;;;;;12.38;6.32;;;24.60;51.60;;;;;;6090968;28;83554;-62
2021/08/12 02:50:04;;;;;;;9.55;6.28;;;24.60;51.60;;;;;;6092431;28;82929;-63
2021/08/12 02:53:05;;;;;;;11.00;6.32;;;24.60;51.60;;;;;;6098817;28;82889;-63
2021/08/12 02:56:06;;;;;;;12.20;6.55;;;24.60;51.70;;;;;;6090409;28;83389;-63
2021/08/12 02:59:07;;;;;;;13.35;7.25;;;24.60;51.80;;;;;;6108152;28;81239;-63
2021/08/12 03:02:07;;;;;;;10.25;6.22;;;24.60;51.80;;;;;;6091850;28;83142;-62
2021/08/12 03:05:08;;;;;;;17.58;7.15;;;24.60;51.90;;;;;;6091519;28;82209;-62
2021/08/12 03:08:12;;;;;;;12.18;7.22;;;24.60;51.90;;;;;;6092347;28;82998;-62
2021/08/12 03:11:13;;;;;;;12.30;6.35;;;24.60;51.90;;;;;;6092668;28;83198;-63
2021/08/12 03:14:13;;;;;;;12.27;6.13;;;24.50;51.80;;;;;;6092131;28;82940;-62
2021/08/12 03:17:14;;;;;;;13.80;6.80;;;24.60;51.90;;;;;;6088913;28;82565;-62
2021/08/12 03:20:16;;;;;;;9.82;6.28;;;24.60;51.90;;;;;;6089501;28;83077;-62
2021/08/12 03:23:16;;;;;;;10.85;6.30;;;24.60;51.90;;;;;;6095866;28;83435;-62
2021/08/12 03:26:17;;;;;;;12.48;6.82;;;24.60;51.90;;;;;;6090237;28;82972;-63
2021/08/12 03:29:18;;;;;;;20.77;6.45;;;24.50;51.90;;;;;;6107823;28;80694;-63
2021/08/12 03:32:18;;;;;;;11.95;6.22;;;24.60;52.40;;;;;;6087490;28;81479;-63
2021/08/12 03:35:19;;;;;;;10.85;6.95;;;24.60;52.00;;;;;;6092074;28;83176;-63
2021/08/12 03:38:21;;;;;;;14.10;7.28;;;24.60;52.00;;;;;;6093267;28;82942;-63
2021/08/12 03:41:22;;;;;;;10.85;6.20;;;24.60;51.90;;;;;;6090154;28;82493;-63
2021/08/12 03:44:23;;;;;;;13.68;6.22;;;24.60;51.90;;;;;;6090388;28;82837;-63
2021/08/12 03:47:23;;;;;;;10.02;6.07;;;24.60;51.80;;;;;;6091758;28;82856;-63
2021/08/12 03:50:24;;;;;;;10.93;6.18;;;24.60;51.80;;;;;;6086600;28;82634;-63
2021/08/12 03:53:26;;;;;;;15.68;6.20;;;24.60;51.80;;;;;;6078688;28;82189;-68
2021/08/12 03:56:27;;;;;;;14.77;6.80;;;24.60;51.80;;;;;;6098669;28;80520;-62
2021/08/12 03:59:27;;;;;;;9.80;6.57;;;24.60;51.90;;;;;;6094450;28;82659;-63
2021/08/12 04:02:28;;;;;;;9.95;6.25;;;24.60;51.90;;;;;;6111703;28;80891;-62
2021/08/12 04:05:29;;;;;;;12.63;7.00;;;24.60;51.80;;;;;;6094782;28;83191;-64
2021/08/12 04:08:29;;;;;;;14.00;6.40;;;24.60;51.90;;;;;;6113737;28;80362;-63
2021/08/12 04:11:31;;;;;;;18.05;7.03;;;24.60;52.00;;;;;;6095535;28;82481;-67
2021/08/12 04:14:32;;;;;;;11.00;6.88;;;24.50;52.00;;;;;;6094166;28;81860;-62
2021/08/12 04:17:34;;;;;;;14.38;6.03;;;24.60;52.20;;;;;;6097346;28;83193;-62
2021/08/12 04:20:36;;;;;;;17.95;7.25;;;24.60;52.30;;;;;;6105715;28;83130;-62
2021/08/12 04:23:36;;;;;;;13.70;7.07;;;24.50;52.30;;;;;;6125631;28;80223;-63
2021/08/12 04:26:37;;;;;;;14.10;7.43;;;24.60;52.30;;;;;;6104194;28;83185;-63
2021/08/12 04:29:37;;;;;;;10.02;6.85;;;24.60;52.50;;;;;;6111924;28;82777;-63
2021/08/12 04:32:38;;;;;;;14.27;7.35;;;24.60;52.70;;;;;;6093344;28;83014;-63
2021/08/12 04:35:38;;;;;;;12.07;6.30;;;24.60;52.80;;;;;;6110751;28;85225;-62
2021/08/12 04:38:39;;;;;;;22.27;7.72;;;24.60;52.70;;;;;;6116120;28;80718;-61
2021/08/12 04:41:39;;;;;;;11.30;7.05;;;24.60;52.90;;;;;;6120729;28;80366;-63
2021/08/12 04:44:40;;;;;;;11.80;6.90;;;24.70;53.30;;;;;;6096476;28;81444;-63
2021/08/12 04:47:40;;;;;;;14.18;6.55;;;24.80;52.90;;;;;;6104842;28;83398;-63
2021/08/12 04:50:41;;;;;;;12.52;6.65;;;24.80;53.30;;;;;;6099989;28;82858;-63
2021/08/12 04:53:41;;;;;;;12.45;6.70;;;24.90;53.00;;;;;;6123897;28;80791;-62
2021/08/12 04:56:42;;;;;;;10.15;6.07;;;25.00;52.90;;;;;;6095198;28;82777;-62
2021/08/12 04:59:43;;;;;;;11.30;5.85;;;25.00;53.00;;;;;;6122967;28;80749;-62
2021/08/12 05:02:43;;;;;;;15.20;6.25;;;25.00;53.20;;;;;;6100173;28;83264;-62
2021/08/12 05:05:44;;;;;;;11.93;7.18;;;25.10;53.70;;;;;;6102872;28;81985;-63
2021/08/12 05:08:44;;;;;;;9.38;5.75;;;25.10;53.10;;;;;;6115758;28;80348;-62
2021/08/12 05:11:45;;;;;;;12.70;6.65;;;25.10;53.00;;;;;;6110021;28;82676;-62
2021/08/12 05:14:46;;;;;;;15.80;7.43;;;25.20;53.10;;;;;;6103621;28;83387;-61
2021/08/12 05:17:47;;;;;;;15.27;7.00;;;25.20;53.00;;;;;;6122865;28;80631;-62
2021/08/12 05:20:48;;;;;;;17.38;7.28;;;25.20;53.20;;;;;;6125589;28;80254;-62
2021/08/12 05:23:48;;;;;;;104.38;31.73;;;25.20;53.20;;;;;;6119029;28;80464;-62
2021/08/12 05:26:49;;;;;;;209.20;65.65;;;25.30;53.80;;;;;;6090516;28;83025;-62
2021/08/12 05:29:50;;;;;;;495.75;191.35;;;25.30;54.20;;;;;;6104041;28;85413;-62
2021/08/12 05:32:52;;;;;;;377.73;139.60;;;25.30;54.40;;;;;;6085959;28;85922;-62
2021/08/12 05:35:52;;;;;;;309.98;109.50;;;25.30;54.30;;;;;;6095192;28;88315;-62
2021/08/12 05:38:57;;;;;;;267.15;97.63;;;25.30;54.60;;;;;;6082386;28;87947;-63
2021/08/12 05:41:57;;;;;;;198.68;76.53;;;25.30;54.00;;;;;;6114901;28;85571;-63
2021/08/12 05:44:58;;;;;;;161.05;67.65;;;25.30;53.90;;;;;;6103363;28;85827;-63
2021/08/12 05:47:59;;;;;;;133.20;55.83;;;25.40;54.20;;;;;;6105764;28;86154;-63
2021/08/12 05:50:59;;;;;;;137.23;51.45;;;25.30;53.50;;;;;;6100058;28;86268;-63
2021/08/12 05:54:01;;;;;;;110.07;45.22;;;25.30;53.60;;;;;;6094329;28;85618;-63
2021/08/12 05:57:01;;;;;;;98.72;40.80;;;25.40;53.60;;;;;;6084054;28;86206;-63
2021/08/12 06:00:02;;;;;;;80.95;32.72;;;25.40;53.40;;;;;;6096938;28;86133;-63
2021/08/12 06:03:03;;;;;;;75.20;30.35;;;25.40;53.30;;;;;;6079830;28;84438;-63
2021/08/12 06:06:06;;;;;;;67.07;24.73;;;25.40;53.40;;;;;;6091122;28;84158;-62
2021/08/12 06:09:07;;;;;;;53.33;24.30;;;25.40;52.70;;;;;;6087605;28;85757;-62
2021/08/12 06:12:09;;;;;;;46.53;19.10;;;25.40;52.90;;;;;;6097460;28;85426;-63
2021/08/12 06:15:09;;;;;;;41.15;16.58;;;25.40;53.00;;;;;;6086754;28;85788;-64
2021/08/12 06:18:12;;;;;;;32.85;14.38;;;25.50;53.50;;;;;;6078842;28;85932;-63
2021/08/12 06:21:14;;;;;;;26.52;12.80;;;25.40;53.20;;;;;;6078683;28;86942;-63
2021/08/12 06:24:15;;;;;;;28.80;12.60;;;25.40;53.90;;;;;;6095414;28;85311;-65
2021/08/12 06:27:15;;;;;;;26.33;11.30;;;25.40;53.10;;;;;;6077192;28;85278;-64
2021/08/12 06:30:16;;;;;;;27.42;10.13;;;25.40;53.50;;;;;;6086671;28;85718;-63
2021/08/12 06:33:17;;;;;;;21.23;9.82;;;25.40;53.20;;;;;;6082518;28;84114;-63
2021/08/12 06:36:18;;;;;;;18.45;9.10;;;25.40;53.00;;;;;;6087860;28;84951;-63
2021/08/12 06:39:19;;;;;;;19.38;8.68;;;25.40;52.70;;;;;;6093294;28;83295;-62
2021/08/12 06:42:21;;;;;;;17.10;7.93;;;25.30;52.60;;;;;;6087420;28;82378;-63
2021/08/12 06:45:27;;;;;;;11.90;6.40;;;25.30;51.70;;;;;;6089366;28;83134;-63
2021/08/12 06:48:28;;;;;;;12.98;7.07;;;25.30;51.80;;;;;;6089672;28;80623;-64
2021/08/12 06:51:29;;;;;;;13.48;7.32;;;25.30;51.50;;;;;;6094202;28;82549;-63
2021/08/12 06:54:29;;;;;;;16.00;6.75;;;25.30;51.60;;;;;;6089256;28;83628;-63
2021/08/12 06:57:30;;;;;;;12.77;5.95;;;25.30;51.50;;;;;;6094111;28;83369;-62
2021/08/12 07:00:31;;;;;;;20.85;6.57;;;25.30;51.70;;;;;;6084710;28;82059;-62
2021/08/12 07:03:31;;;;;;;14.02;6.38;;;25.30;51.50;;;;;;6087820;28;83636;-63
2021/08/12 07:06:36;;;;;;;10.98;5.97;;;25.30;51.20;;;;;;6088996;28;82954;-63
2021/08/12 07:09:37;;;;;;;16.15;6.45;;;25.30;51.70;;;;;;6084483;28;83230;-63
2021/08/12 07:12:38;;;;;;;11.13;6.32;;;25.40;51.70;;;;;;6085027;28;81400;-63
2021/08/12 07:15:38;;;;;;;12.93;5.63;;;25.30;51.50;;;;;;6091166;28;83463;-62
2021/08/12 07:18:39;;;;;;;17.30;6.10;;;25.40;51.50;;;;;;6086958;28;82949;-62
2021/08/12 07:21:40;;;;;;;10.05;6.10;;;25.40;51.70;;;;;;6088612;28;80782;-63
2021/08/12 07:24:41;;;;;;;12.60;6.20;;;25.40;51.30;;;;;;6086007;28;83426;-62
2021/08/12 07:27:42;;;;;;;18.05;7.60;;;25.40;51.20;;;;;;6081913;28;83089;-62
2021/08/12 07:30:43;;;;;;;8.68;5.65;;;25.40;51.50;;;;;;6086754;28;82811;-62
2021/08/12 07:33:43;;;;;;;12.85;6.20;;;25.50;51.00;;;;;;6089426;28;82940;-63
2021/08/12 07:36:46;;;;;;;12.65;5.75;;;25.40;50.60;;;;;;6091054;28;80581;-62
2021/08/12 07:39:46;;;;;;;9.82;5.03;;;25.40;50.50;;;;;;6086255;28;83384;-63
2021/08/12 07:42:47;;;;;;;11.00;5.25;;;25.40;50.20;;;;;;6093567;28;83432;-63
2021/08/12 07:45:48;;;;;;;12.55;6.18;;;25.50;50.50;;;;;;6094233;28;83399;-63
2021/08/12 07:48:48;;;;;;;8.90;5.53;;;25.50;50.60;;;;;;6091187;28;83593;-63
2021/08/12 07:51:49;;;;;;;8.80;5.43;;;25.50;50.80;;;;;;6096594;28;81017;-63
2021/08/12 07:54:50;;;;;;;14.20;5.78;;;25.50;50.40;;;;;;6115875;28;80812;-62
2021/08/12 07:57:51;;;;;;;7.28;4.53;;;25.50;50.00;;;;;;6115885;28;80533;-63
2021/08/12 08:00:51;;;;;;;8.63;5.40;;;25.50;50.00;;;;;;6120702;28;80452;-63
2021/08/12 08:03:53;;;;;;;10.85;5.75;;;25.50;50.00;;;;;;6113580;28;80864;-62
2021/08/12 08:06:53;;;;;;;8.73;5.68;;;25.50;50.00;;;;;;6113799;28;85992;-64
2021/08/12 08:09:54;;;;;;;10.90;4.75;;;25.50;50.20;;;;;;6115423;28;80458;-63
2021/08/12 08:12:54;;;;;;;10.70;4.68;;;25.50;50.60;;;;;;6095723;28;82202;-64
2021/08/12 08:15:55;;;;;;;8.45;5.03;;;25.50;50.40;;;;;;6113300;28;80446;-64
2021/08/12 08:18:55;;;;;;;6.32;3.95;;;25.50;48.10;;;;;;6092451;28;82308;-63
2021/08/12 08:21:56;;;;;;;7.15;4.07;;;25.50;48.80;;;;;;6112935;28;80906;-63
2021/08/12 08:24:56;;;;;;;9.50;4.32;;;25.60;48.20;;;;;;6114432;28;80805;-63
2021/08/12 08:27:57;;;;;;;6.93;3.97;;;25.60;48.20;;;;;;6114371;28;80809;-63
2021/08/12 08:30:57;;;;;;;6.95;3.80;;;25.60;47.80;;;;;;6121232;28;80722;-63
2021/08/12 08:33:59;;;;;;;6.63;3.95;;;25.60;48.00;;;;;;6113673;28;80333;-64
2021/08/12 08:36:59;;;;;;;7.93;4.28;;;25.70;48.00;;;;;;6115353;28;80284;-63
2021/08/12 08:40:00;;;;;;;5.60;3.67;;;25.60;47.30;;;;;;6117251;28;80750;-63
2021/08/12 08:43:00;;;;;;;5.00;4.00;;;25.70;47.00;;;;;;6116581;28;80252;-64
2021/08/12 08:46:01;;;;;;;7.45;3.90;;;25.60;46.80;;;;;;6098634;28;83171;-62
2021/08/12 08:49:01;;;;;;;10.45;3.78;;;25.70;47.30;;;;;;6112099;28;80640;-63
2021/08/12 08:52:02;;;;;;;4.93;3.53;;;25.70;46.80;;;;;;6114064;28;80978;-63
2021/08/12 08:55:02;;;;;;;4.70;3.35;;;25.70;47.10;;;;;;6115927;28;80370;-62
2021/08/12 08:58:03;;;;;;;10.73;3.40;;;25.70;47.90;;;;;;6114319;28;81240;-63
2021/08/12 09:01:03;;;;;;;5.50;3.65;;;25.70;47.40;;;;;;6120730;28;80364;-63
2021/08/12 09:04:04;;;;;;;4.22;3.60;;;25.70;47.20;;;;;;6104239;28;80544;-63
2021/08/12 09:07:04;;;;;;;9.90;3.92;;;25.70;47.00;;;;;;6116703;28;80584;-64
2021/08/12 09:10:05;;;;;;;4.80;3.67;;;25.80;46.80;;;;;;6125289;28;81193;-63
2021/08/12 09:13:05;;;;;;;7.57;3.22;;;25.80;47.00;;;;;;6118722;28;81079;-63
2021/08/12 09:16:06;;;;;;;5.63;3.38;;;25.70;47.60;;;;;;6109401;28;80915;-63
2021/08/12 09:19:06;;;;;;;6.07;4.03;;;25.80;47.50;;;;;;6121755;28;80623;-63
2021/08/12 09:22:09;;;;;;;4.38;3.30;;;25.80;47.90;;;;;;6110393;28;80545;-64
2021/08/12 09:25:09;;;;;;;11.77;4.15;;;25.80;48.20;;;;;;6108245;28;80986;-60
2021/08/12 09:28:10;;;;;;;5.72;3.58;;;25.80;48.90;;;;;;6116059;28;80719;-61
2021/08/12 09:31:10;;;;;;;7.72;3.90;;;25.80;48.50;;;;;;6119073;28;80296;-62
2021/08/12 09:34:13;;;;;;;5.78;3.50;;;25.80;48.60;;;;;;6108751;28;83449;-61
2021/08/12 09:37:13;;;;;;;6.25;3.67;;;25.80;48.80;;;;;;6116599;28;80931;-61
2021/08/12 09:40:14;;;;;;;8.02;3.88;;;25.80;49.00;;;;;;6112650;28;81504;-61
2021/08/12 09:43:15;;;;;;;6.35;3.80;;;25.80;49.30;;;;;;6116088;28;80324;-61
2021/08/12 09:46:16;;;;;;;5.55;3.60;;;25.80;49.30;;;;;;6101226;28;80662;-61
2021/08/12 09:49:17;;;;;;;7.15;3.65;;;25.90;49.50;;;;;;6109930;28;81007;-61
2021/08/12 09:52:17;;;;;;;8.35;3.45;;;25.90;50.20;;;;;;6110354;28;80889;-61
2021/08/12 09:55:20;;;;;;;5.85;3.67;;;25.90;49.40;;;;;;6085310;28;81656;-61
2021/08/12 09:58:20;;;;;;;4.55;3.72;;;25.90;49.90;;;;;;6121481;28;80285;-61
2021/08/12 10:01:22;;;;;;;5.57;3.78;;;25.90;49.30;;;;;;6111313;28;80948;-61
2021/08/12 10:04:27;;;;;;;6.35;4.10;;;25.90;48.70;;;;;;6095836;28;82779;-62
2021/08/12 10:07:28;;;;;;;5.65;4.45;;;25.90;48.30;;;;;;6111907;28;81428;-62
2021/08/12 10:10:28;;;;;;;10.25;7.28;;;25.90;48.30;;;;;;6117327;28;83219;-63
2021/08/12 10:13:29;;;;;;;14.13;7.90;;;25.90;48.90;;;;;;6098942;28;81588;-62
2021/08/12 10:16:30;;;;;;;11.10;6.30;;;25.80;48.80;;;;;;6109993;28;80193;-62
2021/08/12 10:19:31;;;;;;;12.18;7.93;;;25.90;49.10;;;;;;6114050;28;80607;-62
2021/08/12 10:22:31;;;;;;;13.98;8.43;;;25.90;49.20;;;;;;6117775;28;81578;-62
2021/08/12 10:25:34;;;;;;;9.70;7.05;;;25.90;49.10;;;;;;6098286;28;80742;-62
2021/08/12 10:28:35;;;;;;;11.02;6.72;;;25.90;48.10;;;;;;6110945;28;80926;-64
2021/08/12 10:31:35;;;;;;;11.02;6.47;;;25.90;48.30;;;;;;6113691;28;81261;-64
2021/08/12 10:34:36;;;;;;;10.23;4.72;;;26.00;47.90;;;;;;6111352;28;80546;-63
2021/08/12 10:37:36;;;;;;;8.20;4.35;;;26.00;46.80;;;;;;6107729;28;80531;-65
2021/08/12 10:40:37;;;;;;;7.57;4.55;;;26.00;46.30;;;;;;6112530;28;80495;-65
2021/08/12 10:43:37;;;;;;;6.05;4.15;;;26.00;46.10;;;;;;6120035;28;82391;-64
2021/08/12 10:46:37;;;;;;;8.77;3.60;;;26.00;45.90;;;;;;6126035;28;81692;-64
2021/08/12 10:49:39;;;;;;;4.63;3.85;;;26.00;45.00;;;;;;6122551;28;80393;-64
2021/08/12 10:52:39;;;;;;;6.05;4.05;;;26.10;44.30;;;;;;6117435;28;80372;-63
2021/08/12 10:55:40;;;;;;;9.40;4.50;;;26.10;44.40;;;;;;6119786;28;81380;-64
2021/08/12 10:58:40;;;;;;;6.43;4.30;;;26.10;43.80;;;;;;6120570;28;80793;-65
2021/08/12 11:01:41;;;;;;;5.32;4.15;;;26.10;44.60;;;;;;6119158;28;80195;-66
2021/08/12 11:04:42;;;;;;;7.32;4.15;;;26.10;44.70;;;;;;6121535;28;81092;-63
2021/08/12 11:07:43;;;;;;;9.00;4.80;;;26.10;43.70;;;;;;6097169;28;83464;-65
2021/08/12 11:10:44;;;;;;;7.18;4.25;;;26.00;43.60;;;;;;6122160;28;80907;-64
2021/08/12 11:13:45;;;;;;;6.65;4.28;;;26.10;43.50;;;;;;6119443;28;81527;-64
2021/08/12 11:16:48;;;;;;;10.57;4.47;;;26.10;44.30;;;;;;6119647;28;80320;-62
2021/08/12 11:19:49;;;;;;;7.47;4.18;;;26.10;44.50;;;;;;6103447;28;82164;-62
2021/08/12 11:22:50;;;;;;;6.38;4.38;;;26.20;44.10;;;;;;6117552;28;80290;-64
2021/08/12 11:25:50;;;;;;;8.85;4.18;;;26.20;43.50;;;;;;6129524;28;80441;-62
2021/08/12 11:28:51;;;;;;;6.10;4.63;;;26.20;44.30;;;;;;6110830;28;81616;-62
2021/08/12 11:31:52;;;;;;;8.52;4.38;;;26.20;45.00;;;;;;6089406;28;83415;-62
2021/08/12 11:34:53;;;;;;;8.55;4.43;;;26.20;44.10;;;;;;6113654;28;81522;-61
2021/08/12 11:37:53;;;;;;;8.30;4.90;;;26.20;44.00;;;;;;6103452;28;82862;-61
2021/08/12 11:40:55;;;;;;;10.70;4.70;;;26.20;44.40;;;;;;6099972;28;80295;-62
2021/08/12 11:43:55;;;;;;;13.60;4.68;;;26.20;43.30;;;;;;6113597;28;81829;-61
2021/08/12 11:46:56;;;;;;;5.25;4.05;;;26.30;43.10;;;;;;6112749;28;80160;-61
2021/08/12 11:49:56;;;;;;;5.85;4.05;;;26.30;43.20;;;;;;6112060;28;80312;-61
2021/08/12 11:53:00;;;;;;;7.05;3.85;;;26.30;42.70;;;;;;6103168;28;80521;-64
2021/08/12 11:56:00;;;;;;;3.97;3.47;;;26.30;42.10;;;;;;6110593;28;80784;-61
2021/08/12 11:59:01;;;;;;;7.47;5.05;;;26.30;42.00;;;;;;6110951;28;81044;-61
2021/08/12 12:02:02;;;;;;;7.40;4.32;;;26.30;41.70;;;;;;6111118;28;81114;-61
2021/08/12 12:05:02;;;;;;;6.47;4.53;;;26.30;43.20;;;;;;6096767;28;83552;-61
2021/08/12 12:08:08;;;;;;;5.43;3.78;;;26.40;42.50;;;;;;6107093;28;82902;-62
2021/08/12 12:11:08;;;;;;;7.85;4.60;;;26.40;42.40;;;;;;6109180;28;80655;-62
2021/08/12 12:14:09;;;;;;;8.18;4.25;;;26.40;41.80;;;;;;6098203;28;81606;-61
2021/08/12 12:17:10;;;;;;;9.43;4.25;;;26.40;42.20;;;;;;6110814;28;81161;-62
2021/08/12 12:20:13;;;;;;;7.88;4.18;;;26.50;41.60;;;;;;6092796;28;83158;-63
2021/08/12 12:23:16;;;;;;;6.57;4.50;;;26.40;41.60;;;;;;6108921;28;82172;-62
2021/08/12 12:26:17;;;;;;;7.63;4.35;;;26.50;41.90;;;;;;6114766;28;81995;-61
2021/08/12 12:29:17;;;;;;;4.90;3.80;;;26.40;41.70;;;;;;6113950;28;80609;-62
2021/08/12 12:32:19;;;;;;;8.07;4.20;;;26.40;42.40;;;;;;6105987;28;81517;-63
2021/08/12 12:35:19;;;;;;;4.75;3.55;;;26.50;43.00;;;;;;6111852;28;81101;-64
2021/08/12 12:38:21;;;;;;;7.35;3.90;;;26.50;42.90;;;;;;6111522;28;80369;-61
2021/08/12 12:41:22;;;;;;;8.20;4.20;;;26.50;42.40;;;;;;6109596;28;81057;-62
2021/08/12 12:44:22;;;;;;;7.35;4.55;;;26.50;42.30;;;;;;6102423;28;81357;-63
2021/08/12 12:47:23;;;;;;;7.90;3.47;;;26.50;42.80;;;;;;6088713;28;80612;-62
2021/08/12 12:50:23;;;;;;;4.75;3.70;;;26.50;43.80;;;;;;6100787;28;80297;-63
2021/08/12 12:53:24;;;;;;;8.40;4.60;;;26.50;43.90;;;;;;6099892;28;81658;-63
2021/08/12 12:56:25;;;;;;;6.35;3.80;;;26.40;43.40;;;;;;6085225;28;80494;-62
2021/08/12 12:59:25;;;;;;;12.02;4.40;;;26.40;43.60;;;;;;6083113;28;80964;-63
2021/08/12 13:02:26;;;;;;;7.95;4.40;;;26.40;43.10;;;;;;6085832;28;80498;-63
2021/08/12 13:05:26;;;;;;;7.32;4.18;;;26.30;43.10;;;;;;6081554;28;80438;-62
2021/08/12 13:08:27;;;;;;;8.38;4.25;;;26.30;42.60;;;;;;6087468;28;82751;-62
2021/08/12 13:11:27;;;;;;;5.15;3.58;;;26.30;43.30;;;;;;6079645;28;80973;-63
2021/08/12 13:14:28;;;;;;;5.47;4.25;;;26.40;42.90;;;;;;6084202;28;80790;-62
2021/08/12 13:17:30;;;;;;;6.63;4.38;;;26.30;42.80;;;;;;6082127;28;80554;-63
2021/08/12 13:20:30;;;;;;;6.80;4.65;;;26.30;42.30;;;;;;6084087;28;80427;-64
2021/08/12 13:23:31;;;;;;;6.70;4.38;;;26.30;42.10;;;;;;6075041;28;80486;-65
2021/08/12 13:26:32;;;;;;;6.25;4.55;;;26.30;41.70;;;;;;6080474;28;83451;-65
2021/08/12 13:29:33;;;;;;;5.50;4.57;;;26.30;41.70;;;;;;6079246;28;81735;-66
2021/08/12 13:32:34;;;;;;;11.55;5.90;;;26.40;42.20;;;;;;6082436;28;81674;-65
2021/08/12 13:35:35;;;;;;;8.82;5.60;;;26.40;42.70;;;;;;6098769;28;80721;-64
2021/08/12 13:38:35;;;;;;;11.30;4.97;;;26.40;42.20;;;;;;6081270;28;80783;-65
2021/08/12 13:41:36;;;;;;;9.35;5.40;;;26.40;41.60;;;;;;6079943;28;81540;-66
2021/08/12 13:44:36;;;;;;;6.72;5.10;;;26.40;41.70;;;;;;6079118;28;80655;-63
2021/08/12 13:47:37;;;;;;;10.40;4.75;;;26.40;42.50;;;;;;6086946;28;80352;-65
2021/08/12 13:50:37;;;;;;;6.40;4.63;;;26.40;42.40;;;;;;6084698;28;80499;-65
2021/08/12 13:53:38;;;;;;;7.22;4.97;;;26.40;43.10;;;;;;6085856;28;80934;-63
2021/08/12 13:56:38;;;;;;;6.75;4.78;;;26.40;42.80;;;;;;6085657;28;80729;-63
2021/08/12 13:59:39;;;;;;;6.40;4.43;;;26.40;42.90;;;;;;6085696;28;80969;-64
2021/08/12 14:02:40;;;;;;;5.45;4.93;;;26.40;42.60;;;;;;6084964;28;80498;-65
2021/08/12 14:05:40;;;;;;;7.40;4.68;;;26.40;42.90;;;;;;6085618;28;80411;-65
2021/08/12 14:08:41;;;;;;;6.30;4.70;;;26.40;42.70;;;;;;6086406;28;80473;-66
2021/08/12 14:11:41;;;;;;;5.97;4.35;;;26.40;41.90;;;;;;6079484;28;80645;-66
2021/08/12 14:14:42;;;;;;;7.07;4.70;;;26.40;42.00;;;;;;6085008;28;80593;-63
2021/08/12 14:17:42;;;;;;;7.78;4.25;;;26.40;42.60;;;;;;6078126;28;80719;-63
2021/08/12 14:20:43;;;;;;;7.32;4.80;;;26.40;42.70;;;;;;6084119;28;80193;-65
2021/08/12 14:23:43;;;;;;;5.47;4.35;;;26.40;43.10;;;;;;6082704;28;81390;-66
2021/08/12 14:26:44;;;;;;;7.78;4.80;;;26.40;42.50;;;;;;6091936;28;80474;-66
2021/08/12 14:29:44;;;;;;;7.90;4.43;;;26.40;42.40;;;;;;6093980;28;80528;-65
2021/08/12 14:32:45;;;;;;;8.20;4.88;;;26.40;42.20;;;;;;6094296;28;80993;-67
2021/08/12 14:35:45;;;;;;;7.63;5.10;;;26.40;42.20;;;;;;6084296;28;80899;-64
2021/08/12 14:38:47;;;;;;;5.40;4.70;;;26.30;42.20;;;;;;6095081;28;81553;-64
2021/08/12 14:41:47;;;;;;;7.63;4.35;;;26.40;42.70;;;;;;6078808;28;80654;-64
2021/08/12 14:44:48;;;;;;;10.23;4.90;;;26.40;42.70;;;;;;6080586;28;81558;-64
2021/08/12 14:47:48;;;;;;;6.35;4.85;;;26.40;42.80;;;;;;6083197;28;81115;-64
2021/08/12 14:50:49;;;;;;;6.35;4.78;;;26.40;42.50;;;;;;6081620;28;81436;-62
2021/08/12 14:53:49;;;;;;;4.72;4.05;;;26.40;43.10;;;;;;6082862;28;80424;-63
2021/08/12 14:56:50;;;;;;;8.55;4.78;;;26.40;43.60;;;;;;6080775;28;83453;-63
2021/08/12 14:59:50;;;;;;;4.82;4.07;;;26.40;43.90;;;;;;6073291;28;81073;-64
2021/08/12 15:02:51;;;;;;;5.95;4.70;;;26.40;43.40;;;;;;6083536;28;81027;-63
2021/08/12 15:05:51;;;;;;;16.45;4.65;;;26.40;43.50;;;;;;6083620;28;80594;-68
2021/08/12 15:08:52;;;;;;;8.80;4.60;;;26.40;43.60;;;;;;6094064;28;80910;-67
2021/08/12 15:11:52;;;;;;;9.73;4.60;;;26.40;43.30;;;;;;6087336;28;80183;-64
2021/08/12 15:14:53;;;;;;;4.90;4.25;;;26.40;43.30;;;;;;6077124;28;80423;-67
2021/08/12 15:17:53;;;;;;;9.07;5.03;;;26.30;43.20;;;;;;6099652;28;87475;-64
2021/08/12 15:20:54;;;;;;;7.78;4.78;;;26.40;43.90;;;;;;6112853;28;80726;-64
2021/08/12 15:23:54;;;;;;;7.80;4.70;;;26.40;43.70;;;;;;6119135;28;81321;-64
2021/08/12 15:26:55;;;;;;;6.85;4.97;;;26.40;44.50;;;;;;6116229;28;80340;-63
2021/08/12 15:29:55;;;;;;;6.68;4.60;;;26.40;44.20;;;;;;6102778;28;81444;-64
2021/08/12 15:32:56;;;;;;;6.05;4.80;;;26.40;44.10;;;;;;6107294;28;81688;-64